DLH37M EDDF-LEBL
Flight info
| Callsign | DLH37M |
|---|---|
| Flight time | 1h 32m |
| Altitude | 37000 |
| Route | ANEKI2L/18 ANEKI Y163 HERBI Y164 MOPAN DCT LUTIX DCT BENOT DCT NEMOS DCT GEVEA/N0390F270 DCT INCUS DCT BALSI/N0429F350 DCT RETNO DCT TUPOX DCT MTG DCT DIVKO/N0433F370 DCT NILDU DCT BISBA |
| Aircraft | A320/M-SDE3FGHIRWY/LB1 |
Departure
| Time | 2026-04-15 14:58 |
|---|---|
| Airport | Frankfurt Main Airport (EDDF) |
Arrival
| Time | 2026-04-15 16:30 |
|---|---|
| Airport | Josep Tarradellas Barcelona-El Prat Airport (LEBL) |
| Time | Latitude | Longitude | Altitude | Speed | Heading |
|---|---|---|---|---|---|
| 2026-04-15 14:29 | 50.04534 | 8.56583 | 355 ft | 0 kts | 115° |
| 2026-04-15 14:46 | 50.04543 | 8.56551 | 353 ft | 4 kts | 117° |
| 2026-04-15 14:46 | 50.04557 | 8.56515 | 350 ft | 4 kts | 124° |
| 2026-04-15 14:47 | 50.04573 | 8.56483 | 355 ft | 4 kts | 144° |
| 2026-04-15 14:47 | 50.04593 | 8.56471 | 351 ft | 2 kts | 203° |
| 2026-04-15 14:47 | 50.04595 | 8.56472 | 351 ft | 0 kts | 206° |
| 2026-04-15 14:50 | 50.04592 | 8.56471 | 351 ft | 1 kts | 197° |
| 2026-04-15 14:50 | 50.04591 | 8.56472 | 351 ft | 1 kts | 188° |
| 2026-04-15 14:51 | 50.04545 | 8.56449 | 354 ft | 9 kts | 203° |
| 2026-04-15 14:51 | 50.04507 | 8.56353 | 353 ft | 11 kts | 249° |
| 2026-04-15 14:51 | 50.04486 | 8.56247 | 347 ft | 10 kts | 249° |
| 2026-04-15 14:51 | 50.04461 | 8.56151 | 348 ft | 11 kts | 246° |
| 2026-04-15 14:52 | 50.04423 | 8.56047 | 352 ft | 10 kts | 214° |
| 2026-04-15 14:52 | 50.04358 | 8.56054 | 352 ft | 11 kts | 160° |
| 2026-04-15 14:52 | 50.04280 | 8.56053 | 352 ft | 11 kts | 215° |
| 2026-04-15 14:52 | 50.04245 | 8.55957 | 348 ft | 11 kts | 248° |
| 2026-04-15 14:53 | 50.04217 | 8.55841 | 348 ft | 14 kts | 254° |
| 2026-04-15 14:53 | 50.04182 | 8.55699 | 347 ft | 15 kts | 248° |
| 2026-04-15 14:53 | 50.04137 | 8.55527 | 350 ft | 17 kts | 247° |
| 2026-04-15 14:53 | 50.04097 | 8.55340 | 346 ft | 19 kts | 245° |
| 2026-04-15 14:54 | 50.04051 | 8.55151 | 353 ft | 19 kts | 250° |
| 2026-04-15 14:54 | 50.04007 | 8.54951 | 351 ft | 20 kts | 248° |
| 2026-04-15 14:54 | 50.03957 | 8.54736 | 350 ft | 22 kts | 252° |
| 2026-04-15 14:54 | 50.03901 | 8.54520 | 349 ft | 21 kts | 250° |
| 2026-04-15 14:55 | 50.03838 | 8.54315 | 350 ft | 21 kts | 242° |
| 2026-04-15 14:55 | 50.03772 | 8.54101 | 350 ft | 23 kts | 248° |
| 2026-04-15 14:55 | 50.03713 | 8.53867 | 353 ft | 24 kts | 247° |
| 2026-04-15 14:55 | 50.03654 | 8.53618 | 345 ft | 25 kts | 252° |
| 2026-04-15 14:56 | 50.03592 | 8.53358 | 351 ft | 26 kts | 250° |
| 2026-04-15 14:56 | 50.03526 | 8.53087 | 352 ft | 27 kts | 249° |
| 2026-04-15 14:56 | 50.03458 | 8.52817 | 352 ft | 26 kts | 246° |
| 2026-04-15 14:56 | 50.03392 | 8.52605 | 351 ft | 15 kts | 205° |
| 2026-04-15 14:57 | 50.03301 | 8.52598 | 353 ft | 14 kts | 179° |
| 2026-04-15 14:57 | 50.03083 | 8.52571 | 349 ft | 64 kts | 174° |
| 2026-04-15 14:57 | 50.02418 | 8.52603 | 351 ft | 125 kts | 180° |
| 2026-04-15 14:57 | 50.01383 | 8.52616 | 395 ft | 166 kts | 180° |
| 2026-04-15 14:58 | 50.00245 | 8.52621 | 1109 ft | 163 kts | 178° |
| 2026-04-15 14:58 | 49.99104 | 8.52685 | 1776 ft | 169 kts | 177° |
| 2026-04-15 14:58 | 49.97858 | 8.52775 | 2130 ft | 190 kts | 177° |
| 2026-04-15 14:58 | 49.96446 | 8.52879 | 2454 ft | 215 kts | 177° |
| 2026-04-15 14:59 | 49.94921 | 8.52989 | 3182 ft | 222 kts | 177° |
| 2026-04-15 14:59 | 49.93358 | 8.53103 | 4001 ft | 227 kts | 177° |
| 2026-04-15 14:59 | 49.91772 | 8.53216 | 4897 ft | 229 kts | 177° |
| 2026-04-15 14:59 | 49.90165 | 8.53329 | 5712 ft | 233 kts | 178° |
| 2026-04-15 15:00 | 49.88569 | 8.53442 | 6568 ft | 235 kts | 178° |
| 2026-04-15 15:00 | 49.86930 | 8.53554 | 7370 ft | 237 kts | 178° |
| 2026-04-15 15:00 | 49.85268 | 8.53666 | 8162 ft | 241 kts | 179° |
| 2026-04-15 15:00 | 49.83580 | 8.53779 | 8962 ft | 245 kts | 179° |
| 2026-04-15 15:01 | 49.81866 | 8.53894 | 9754 ft | 248 kts | 179° |
| 2026-04-15 15:01 | 49.80126 | 8.54011 | 10529 ft | 252 kts | 179° |
| 2026-04-15 15:01 | 49.78364 | 8.54124 | 11274 ft | 255 kts | 181° |
| 2026-04-15 15:01 | 49.76549 | 8.53951 | 11740 ft | 272 kts | 186° |
| 2026-04-15 15:02 | 49.74587 | 8.53690 | 11996 ft | 295 kts | 186° |
| 2026-04-15 15:02 | 49.72459 | 8.53399 | 12223 ft | 319 kts | 186° |
| 2026-04-15 15:02 | 49.70190 | 8.53088 | 12636 ft | 333 kts | 186° |
| 2026-04-15 15:02 | 49.67859 | 8.52772 | 13319 ft | 339 kts | 186° |
| 2026-04-15 15:03 | 49.65494 | 8.52456 | 14035 ft | 343 kts | 186° |
| 2026-04-15 15:03 | 49.63102 | 8.52139 | 14659 ft | 347 kts | 186° |
| 2026-04-15 15:03 | 49.60685 | 8.51824 | 15283 ft | 351 kts | 186° |
| 2026-04-15 15:03 | 49.58238 | 8.51505 | 15909 ft | 354 kts | 186° |
| 2026-04-15 15:04 | 49.55768 | 8.51178 | 16541 ft | 358 kts | 186° |
| 2026-04-15 15:04 | 49.53271 | 8.50848 | 17167 ft | 362 kts | 187° |
| 2026-04-15 15:04 | 49.50749 | 8.50516 | 17783 ft | 366 kts | 187° |
| 2026-04-15 15:04 | 49.48198 | 8.50180 | 18399 ft | 370 kts | 187° |
| 2026-04-15 15:05 | 49.45621 | 8.49843 | 18925 ft | 373 kts | 187° |
| 2026-04-15 15:05 | 49.43021 | 8.49503 | 19448 ft | 377 kts | 187° |
| 2026-04-15 15:05 | 49.40397 | 8.49158 | 19961 ft | 380 kts | 187° |
| 2026-04-15 15:05 | 49.37748 | 8.48811 | 20477 ft | 384 kts | 187° |
| 2026-04-15 15:06 | 49.32383 | 8.48122 | 21505 ft | 390 kts | 186° |
| 2026-04-15 15:06 | 49.29669 | 8.47773 | 22004 ft | 393 kts | 186° |
| 2026-04-15 15:06 | 49.26933 | 8.47419 | 22492 ft | 396 kts | 186° |
| 2026-04-15 15:07 | 49.24172 | 8.47060 | 22980 ft | 399 kts | 187° |
| 2026-04-15 15:07 | 49.21392 | 8.46700 | 23443 ft | 403 kts | 186° |
| 2026-04-15 15:07 | 49.18588 | 8.46338 | 23859 ft | 407 kts | 186° |
| 2026-04-15 15:07 | 49.15754 | 8.45971 | 24236 ft | 410 kts | 186° |
| 2026-04-15 15:08 | 49.12899 | 8.45601 | 24622 ft | 413 kts | 186° |
| 2026-04-15 15:08 | 49.10027 | 8.45230 | 24992 ft | 416 kts | 186° |
| 2026-04-15 15:08 | 49.07136 | 8.44844 | 25363 ft | 419 kts | 188° |
| 2026-04-15 15:08 | 49.04273 | 8.44032 | 25715 ft | 420 kts | 195° |
| 2026-04-15 15:09 | 49.01454 | 8.43038 | 26077 ft | 423 kts | 195° |
| 2026-04-15 15:09 | 48.98578 | 8.42029 | 26424 ft | 425 kts | 195° |
| 2026-04-15 15:09 | 48.95682 | 8.41019 | 26772 ft | 429 kts | 194° |
| 2026-04-15 15:09 | 48.92765 | 8.40009 | 27140 ft | 432 kts | 194° |
| 2026-04-15 15:10 | 48.89792 | 8.38981 | 27512 ft | 435 kts | 194° |
| 2026-04-15 15:10 | 48.86870 | 8.37971 | 27861 ft | 437 kts | 194° |
| 2026-04-15 15:10 | 48.83896 | 8.36944 | 28209 ft | 440 kts | 194° |
| 2026-04-15 15:10 | 48.80902 | 8.35909 | 28553 ft | 443 kts | 195° |
| 2026-04-15 15:11 | 48.77889 | 8.34865 | 28892 ft | 445 kts | 195° |
| 2026-04-15 15:11 | 48.74824 | 8.33774 | 29205 ft | 449 kts | 195° |
| 2026-04-15 15:11 | 48.71780 | 8.32661 | 29531 ft | 451 kts | 195° |
| 2026-04-15 15:11 | 48.68720 | 8.31526 | 29844 ft | 454 kts | 195° |
| 2026-04-15 15:12 | 48.65649 | 8.30384 | 30157 ft | 457 kts | 195° |
| 2026-04-15 15:12 | 48.62594 | 8.29255 | 30426 ft | 459 kts | 195° |
| 2026-04-15 15:12 | 48.59480 | 8.28111 | 30694 ft | 461 kts | 195° |
| 2026-04-15 15:12 | 48.56355 | 8.26973 | 30960 ft | 463 kts | 195° |
| 2026-04-15 15:13 | 48.53213 | 8.25837 | 31223 ft | 465 kts | 195° |
| 2026-04-15 15:13 | 48.50063 | 8.24701 | 31487 ft | 467 kts | 195° |
| 2026-04-15 15:13 | 48.46901 | 8.23563 | 31791 ft | 467 kts | 195° |
| 2026-04-15 15:13 | 48.43747 | 8.22419 | 32158 ft | 466 kts | 195° |
| 2026-04-15 15:14 | 48.40597 | 8.21269 | 32525 ft | 465 kts | 196° |
| 2026-04-15 15:14 | 48.37457 | 8.20118 | 32885 ft | 464 kts | 196° |
| 2026-04-15 15:14 | 48.34320 | 8.18966 | 33198 ft | 464 kts | 196° |
| 2026-04-15 15:14 | 48.31181 | 8.17816 | 33510 ft | 465 kts | 196° |
| 2026-04-15 15:15 | 48.28039 | 8.16678 | 33851 ft | 464 kts | 196° |
| 2026-04-15 15:15 | 48.24930 | 8.15400 | 34200 ft | 462 kts | 202° |
| 2026-04-15 15:15 | 48.21995 | 8.13513 | 34507 ft | 458 kts | 209° |
| 2026-04-15 15:15 | 48.19145 | 8.11389 | 34796 ft | 457 kts | 209° |
| 2026-04-15 15:16 | 48.16292 | 8.09270 | 35088 ft | 457 kts | 209° |
| 2026-04-15 15:16 | 48.13443 | 8.07163 | 35357 ft | 456 kts | 209° |
| 2026-04-15 15:16 | 48.10598 | 8.05067 | 35638 ft | 456 kts | 209° |
| 2026-04-15 15:16 | 48.07750 | 8.02971 | 35898 ft | 456 kts | 209° |
| 2026-04-15 15:17 | 48.04906 | 8.00882 | 36159 ft | 455 kts | 209° |
| 2026-04-15 15:17 | 48.02064 | 7.98793 | 36422 ft | 455 kts | 209° |
| 2026-04-15 15:17 | 47.99231 | 7.96710 | 36663 ft | 454 kts | 209° |
| 2026-04-15 15:17 | 47.96393 | 7.94628 | 36904 ft | 454 kts | 209° |
| 2026-04-15 15:18 | 47.93560 | 7.92552 | 37120 ft | 454 kts | 209° |
| 2026-04-15 15:18 | 47.90730 | 7.90478 | 37189 ft | 453 kts | 209° |
| 2026-04-15 15:18 | 47.85080 | 7.86343 | 37215 ft | 452 kts | 209° |
| 2026-04-15 15:19 | 47.79436 | 7.82232 | 37208 ft | 452 kts | 208° |
| 2026-04-15 15:19 | 47.73783 | 7.78137 | 37220 ft | 452 kts | 208° |
| 2026-04-15 15:20 | 47.68169 | 7.74063 | 37220 ft | 453 kts | 208° |
| 2026-04-15 15:20 | 47.62508 | 7.69965 | 37230 ft | 453 kts | 208° |
| 2026-04-15 15:21 | 47.57763 | 7.66541 | 37229 ft | 453 kts | 208° |
| 2026-04-15 15:21 | 47.51177 | 7.61801 | 37220 ft | 453 kts | 208° |
| 2026-04-15 15:22 | 47.45499 | 7.57732 | 37218 ft | 453 kts | 208° |
| 2026-04-15 15:22 | 47.40744 | 7.54327 | 37220 ft | 454 kts | 208° |
| 2026-04-15 15:23 | 47.35065 | 7.50258 | 37219 ft | 454 kts | 208° |
| 2026-04-15 15:23 | 47.29418 | 7.46229 | 37207 ft | 453 kts | 208° |
| 2026-04-15 15:24 | 47.23705 | 7.42166 | 37230 ft | 453 kts | 208° |
| 2026-04-15 15:24 | 47.18144 | 7.37891 | 37232 ft | 448 kts | 218° |
| 2026-04-15 15:25 | 47.13646 | 7.31803 | 37227 ft | 440 kts | 235° |
| 2026-04-15 15:25 | 47.09431 | 7.25297 | 37212 ft | 446 kts | 216° |
| 2026-04-15 15:26 | 47.04009 | 7.20677 | 37202 ft | 448 kts | 212° |
| 2026-04-15 15:26 | 46.98590 | 7.16251 | 37198 ft | 449 kts | 212° |
| 2026-04-15 15:27 | 46.93130 | 7.11798 | 37181 ft | 450 kts | 212° |
| 2026-04-15 15:27 | 46.87668 | 7.07320 | 37181 ft | 451 kts | 212° |
| 2026-04-15 15:28 | 46.82198 | 7.02841 | 37184 ft | 451 kts | 212° |
| 2026-04-15 15:28 | 46.76717 | 6.98368 | 37190 ft | 451 kts | 212° |
| 2026-04-15 15:29 | 46.71233 | 6.93906 | 37186 ft | 452 kts | 212° |
| 2026-04-15 15:29 | 46.65737 | 6.89448 | 37179 ft | 452 kts | 212° |
| 2026-04-15 15:30 | 46.60243 | 6.84996 | 37210 ft | 451 kts | 212° |
| 2026-04-15 15:30 | 46.54759 | 6.80565 | 37222 ft | 451 kts | 212° |
| 2026-04-15 15:31 | 46.49287 | 6.76146 | 37225 ft | 450 kts | 212° |
| 2026-04-15 15:31 | 46.43821 | 6.71748 | 37221 ft | 449 kts | 212° |
| 2026-04-15 15:32 | 46.38349 | 6.67366 | 37220 ft | 449 kts | 212° |
| 2026-04-15 15:32 | 46.32880 | 6.62994 | 37205 ft | 449 kts | 212° |
| 2026-04-15 15:33 | 46.27410 | 6.58625 | 37200 ft | 449 kts | 212° |
| 2026-04-15 15:33 | 46.21947 | 6.54255 | 37201 ft | 449 kts | 212° |
| 2026-04-15 15:34 | 46.16475 | 6.49900 | 37189 ft | 449 kts | 212° |
| 2026-04-15 15:34 | 46.10999 | 6.45552 | 37185 ft | 450 kts | 212° |
| 2026-04-15 15:35 | 46.05510 | 6.41208 | 37184 ft | 450 kts | 212° |
| 2026-04-15 15:35 | 46.00018 | 6.36869 | 37189 ft | 450 kts | 212° |
| 2026-04-15 15:36 | 45.94520 | 6.32540 | 37175 ft | 451 kts | 212° |
| 2026-04-15 15:36 | 45.89014 | 6.28224 | 37174 ft | 451 kts | 211° |
| 2026-04-15 15:37 | 45.83512 | 6.23914 | 37176 ft | 450 kts | 212° |
| 2026-04-15 15:37 | 45.78025 | 6.19614 | 37171 ft | 450 kts | 211° |
| 2026-04-15 15:38 | 45.72532 | 6.15321 | 37172 ft | 449 kts | 211° |
| 2026-04-15 15:38 | 45.67042 | 6.11041 | 37189 ft | 450 kts | 211° |
| 2026-04-15 15:39 | 45.61544 | 6.06762 | 37185 ft | 449 kts | 211° |
| 2026-04-15 15:39 | 45.56046 | 6.02501 | 37181 ft | 450 kts | 211° |
| 2026-04-15 15:40 | 45.50533 | 5.98244 | 37180 ft | 450 kts | 211° |
| 2026-04-15 15:40 | 45.44654 | 5.95099 | 37176 ft | 456 kts | 194° |
| 2026-04-15 15:41 | 45.38459 | 5.93190 | 37159 ft | 456 kts | 194° |
| 2026-04-15 15:41 | 45.32290 | 5.91270 | 37156 ft | 457 kts | 194° |
| 2026-04-15 15:42 | 45.26081 | 5.89322 | 37156 ft | 458 kts | 195° |
| 2026-04-15 15:42 | 45.19857 | 5.87377 | 37145 ft | 458 kts | 194° |
| 2026-04-15 15:43 | 45.13619 | 5.85440 | 37144 ft | 459 kts | 194° |
| 2026-04-15 15:43 | 45.07372 | 5.83506 | 37138 ft | 460 kts | 195° |
| 2026-04-15 15:44 | 45.01115 | 5.81576 | 37141 ft | 461 kts | 194° |
| 2026-04-15 15:44 | 44.94850 | 5.79651 | 37132 ft | 461 kts | 194° |
| 2026-04-15 15:45 | 44.88573 | 5.77726 | 37124 ft | 462 kts | 194° |
| 2026-04-15 15:45 | 44.82286 | 5.75802 | 37108 ft | 462 kts | 194° |
| 2026-04-15 15:46 | 44.75995 | 5.73875 | 37108 ft | 463 kts | 194° |
| 2026-04-15 15:46 | 44.69695 | 5.71952 | 37102 ft | 464 kts | 194° |
| 2026-04-15 15:47 | 44.63387 | 5.70039 | 37114 ft | 463 kts | 194° |
| 2026-04-15 15:47 | 44.57100 | 5.68125 | 37115 ft | 462 kts | 194° |
| 2026-04-15 15:48 | 44.50818 | 5.66221 | 37109 ft | 461 kts | 194° |
| 2026-04-15 15:48 | 44.44545 | 5.64327 | 37095 ft | 461 kts | 194° |
| 2026-04-15 15:49 | 44.38285 | 5.62374 | 37096 ft | 460 kts | 199° |
| 2026-04-15 15:49 | 44.32317 | 5.59233 | 37087 ft | 458 kts | 204° |
| 2026-04-15 15:50 | 44.26387 | 5.55974 | 37073 ft | 458 kts | 204° |
| 2026-04-15 15:50 | 44.20445 | 5.52729 | 37069 ft | 459 kts | 204° |
| 2026-04-15 15:51 | 44.14495 | 5.49489 | 37068 ft | 460 kts | 204° |
| 2026-04-15 15:51 | 44.08571 | 5.46274 | 37070 ft | 460 kts | 204° |
| 2026-04-15 15:52 | 44.02598 | 5.43029 | 37068 ft | 461 kts | 204° |
| 2026-04-15 15:52 | 43.96613 | 5.39787 | 37053 ft | 462 kts | 204° |
| 2026-04-15 15:53 | 43.90624 | 5.36537 | 37065 ft | 462 kts | 204° |
| 2026-04-15 15:53 | 43.84621 | 5.33296 | 37056 ft | 464 kts | 204° |
| 2026-04-15 15:54 | 43.78609 | 5.30059 | 37072 ft | 463 kts | 204° |
| 2026-04-15 15:54 | 43.72605 | 5.26825 | 37088 ft | 463 kts | 204° |
| 2026-04-15 15:55 | 43.66607 | 5.23601 | 37086 ft | 463 kts | 204° |
| 2026-04-15 15:55 | 43.60598 | 5.20390 | 37085 ft | 463 kts | 204° |
| 2026-04-15 15:56 | 43.54590 | 5.17178 | 37086 ft | 463 kts | 204° |
| 2026-04-15 15:56 | 43.48576 | 5.13963 | 37083 ft | 464 kts | 204° |
| 2026-04-15 15:57 | 43.42551 | 5.10769 | 37081 ft | 464 kts | 204° |
| 2026-04-15 15:57 | 43.36770 | 5.06944 | 37083 ft | 458 kts | 218° |
| 2026-04-15 15:58 | 43.31523 | 5.01983 | 37084 ft | 458 kts | 218° |
| 2026-04-15 15:58 | 43.26263 | 4.97022 | 37080 ft | 459 kts | 218° |
| 2026-04-15 15:59 | 43.20994 | 4.92073 | 37096 ft | 459 kts | 218° |
| 2026-04-15 15:59 | 43.15727 | 4.87143 | 37121 ft | 458 kts | 218° |
| 2026-04-15 16:00 | 43.10466 | 4.82232 | 37118 ft | 457 kts | 218° |
| 2026-04-15 16:00 | 43.05260 | 4.77239 | 37105 ft | 455 kts | 224° |
| 2026-04-15 16:01 | 43.00541 | 4.71531 | 37120 ft | 453 kts | 226° |
| 2026-04-15 16:01 | 42.95812 | 4.65824 | 37123 ft | 454 kts | 225° |
| 2026-04-15 16:02 | 42.91082 | 4.60123 | 37119 ft | 454 kts | 226° |
| 2026-04-15 16:02 | 42.86348 | 4.54426 | 37111 ft | 453 kts | 226° |
| 2026-04-15 16:03 | 42.81627 | 4.48751 | 37130 ft | 452 kts | 226° |
| 2026-04-15 16:03 | 42.76911 | 4.43097 | 37137 ft | 451 kts | 226° |
| 2026-04-15 16:04 | 42.72208 | 4.37465 | 37139 ft | 450 kts | 225° |
| 2026-04-15 16:04 | 42.67498 | 4.31860 | 37137 ft | 450 kts | 225° |
| 2026-04-15 16:05 | 42.62790 | 4.26258 | 37139 ft | 450 kts | 225° |
| 2026-04-15 16:05 | 42.58076 | 4.20637 | 36308 ft | 457 kts | 226° |
| 2026-04-15 16:06 | 42.55690 | 4.17798 | 35732 ft | 454 kts | 226° |
| 2026-04-15 16:06 | 42.54117 | 4.15933 | 35376 ft | 452 kts | 226° |
| 2026-04-15 16:06 | 42.51757 | 4.13143 | 34808 ft | 449 kts | 226° |
| 2026-04-15 16:06 | 42.49408 | 4.10371 | 34275 ft | 447 kts | 226° |
| 2026-04-15 16:07 | 42.47069 | 4.07609 | 33675 ft | 444 kts | 226° |
| 2026-04-15 16:07 | 42.44747 | 4.04870 | 33155 ft | 440 kts | 226° |
| 2026-04-15 16:07 | 42.40163 | 3.99461 | 32078 ft | 434 kts | 225° |
| 2026-04-15 16:08 | 42.37891 | 3.96783 | 31549 ft | 431 kts | 225° |
| 2026-04-15 16:08 | 42.35636 | 3.94127 | 31037 ft | 429 kts | 225° |
| 2026-04-15 16:08 | 42.33391 | 3.91493 | 30521 ft | 426 kts | 225° |
| 2026-04-15 16:08 | 42.31154 | 3.88875 | 29984 ft | 424 kts | 225° |
| 2026-04-15 16:09 | 42.28932 | 3.86277 | 29469 ft | 420 kts | 225° |
| 2026-04-15 16:09 | 42.26736 | 3.83712 | 28991 ft | 416 kts | 225° |
| 2026-04-15 16:09 | 42.24564 | 3.81171 | 28538 ft | 411 kts | 225° |
| 2026-04-15 16:09 | 42.22446 | 3.78693 | 28087 ft | 406 kts | 225° |
| 2026-04-15 16:10 | 42.20298 | 3.76182 | 27649 ft | 401 kts | 225° |
| 2026-04-15 16:10 | 42.18202 | 3.73734 | 27211 ft | 397 kts | 225° |
| 2026-04-15 16:10 | 42.16156 | 3.71349 | 26782 ft | 393 kts | 225° |
| 2026-04-15 16:10 | 42.14098 | 3.68956 | 26353 ft | 389 kts | 225° |
| 2026-04-15 16:11 | 42.12057 | 3.66585 | 25908 ft | 386 kts | 225° |
| 2026-04-15 16:11 | 42.10028 | 3.64227 | 25451 ft | 384 kts | 225° |
| 2026-04-15 16:11 | 42.08068 | 3.61815 | 25016 ft | 379 kts | 231° |
| 2026-04-15 16:11 | 42.06251 | 3.59239 | 24660 ft | 380 kts | 231° |
| 2026-04-15 16:12 | 42.04426 | 3.56669 | 24273 ft | 380 kts | 230° |
| 2026-04-15 16:12 | 42.02596 | 3.54111 | 23891 ft | 378 kts | 230° |
| 2026-04-15 16:12 | 42.00768 | 3.51569 | 23475 ft | 377 kts | 230° |
| 2026-04-15 16:12 | 41.98954 | 3.49047 | 23091 ft | 375 kts | 230° |
| 2026-04-15 16:13 | 41.97148 | 3.46536 | 22717 ft | 373 kts | 230° |
| 2026-04-15 16:13 | 41.95349 | 3.44035 | 22346 ft | 371 kts | 230° |
| 2026-04-15 16:13 | 41.93560 | 3.41551 | 21980 ft | 369 kts | 230° |
| 2026-04-15 16:13 | 41.91778 | 3.39076 | 21611 ft | 369 kts | 230° |
| 2026-04-15 16:14 | 41.89998 | 3.36601 | 21244 ft | 368 kts | 230° |
| 2026-04-15 16:14 | 41.88224 | 3.34141 | 20878 ft | 366 kts | 230° |
| 2026-04-15 16:14 | 41.86458 | 3.31696 | 20512 ft | 364 kts | 230° |
| 2026-04-15 16:14 | 41.84698 | 3.29259 | 20148 ft | 363 kts | 229° |
| 2026-04-15 16:15 | 41.83001 | 3.26770 | 19526 ft | 363 kts | 237° |
| 2026-04-15 16:15 | 41.81543 | 3.24046 | 19022 ft | 356 kts | 238° |
| 2026-04-15 16:15 | 41.80126 | 3.21349 | 18653 ft | 353 kts | 239° |
| 2026-04-15 16:15 | 41.78727 | 3.18661 | 18136 ft | 350 kts | 239° |
| 2026-04-15 16:16 | 41.77339 | 3.15994 | 17541 ft | 349 kts | 238° |
| 2026-04-15 16:16 | 41.75939 | 3.13307 | 16945 ft | 353 kts | 238° |
| 2026-04-15 16:16 | 41.74526 | 3.10600 | 16361 ft | 357 kts | 238° |
| 2026-04-15 16:16 | 41.73096 | 3.07868 | 15795 ft | 358 kts | 238° |
| 2026-04-15 16:17 | 41.71680 | 3.05174 | 15202 ft | 349 kts | 238° |
| 2026-04-15 16:17 | 41.70299 | 3.02557 | 14652 ft | 340 kts | 238° |
| 2026-04-15 16:17 | 41.68949 | 3.00001 | 14113 ft | 333 kts | 238° |
| 2026-04-15 16:17 | 41.67625 | 2.97499 | 13530 ft | 326 kts | 238° |
| 2026-04-15 16:18 | 41.66328 | 2.95043 | 12939 ft | 321 kts | 238° |
| 2026-04-15 16:18 | 41.65063 | 2.92651 | 12570 ft | 308 kts | 238° |
| 2026-04-15 16:18 | 41.63850 | 2.90363 | 12202 ft | 297 kts | 238° |
| 2026-04-15 16:18 | 41.62673 | 2.88142 | 11837 ft | 292 kts | 238° |
| 2026-04-15 16:19 | 41.61497 | 2.85919 | 11464 ft | 294 kts | 237° |
| 2026-04-15 16:19 | 41.60314 | 2.83688 | 11078 ft | 295 kts | 237° |
| 2026-04-15 16:19 | 41.59128 | 2.81449 | 10694 ft | 296 kts | 237° |
| 2026-04-15 16:19 | 41.57936 | 2.79199 | 10295 ft | 297 kts | 237° |
| 2026-04-15 16:20 | 41.56740 | 2.76943 | 9884 ft | 298 kts | 237° |
| 2026-04-15 16:20 | 41.55543 | 2.74684 | 9472 ft | 298 kts | 237° |
| 2026-04-15 16:20 | 41.54359 | 2.72453 | 9059 ft | 298 kts | 237° |
| 2026-04-15 16:20 | 41.53144 | 2.70170 | 8639 ft | 297 kts | 237° |
| 2026-04-15 16:21 | 41.51975 | 2.67979 | 8459 ft | 288 kts | 237° |
| 2026-04-15 16:21 | 41.50838 | 2.65854 | 8380 ft | 275 kts | 236° |
| 2026-04-15 16:21 | 41.49749 | 2.63820 | 8272 ft | 263 kts | 237° |
| 2026-04-15 16:21 | 41.48709 | 2.61873 | 8165 ft | 252 kts | 237° |
| 2026-04-15 16:22 | 41.47707 | 2.59995 | 8058 ft | 246 kts | 237° |
| 2026-04-15 16:22 | 41.46770 | 2.58122 | 7955 ft | 238 kts | 246° |
| 2026-04-15 16:22 | 41.46088 | 2.56121 | 7618 ft | 239 kts | 249° |
| 2026-04-15 16:22 | 41.45406 | 2.54085 | 7280 ft | 242 kts | 248° |
| 2026-04-15 16:23 | 41.44713 | 2.52020 | 6880 ft | 247 kts | 248° |
| 2026-04-15 16:23 | 41.44001 | 2.49908 | 6435 ft | 253 kts | 248° |
| 2026-04-15 16:23 | 41.43274 | 2.47778 | 5993 ft | 250 kts | 248° |
| 2026-04-15 16:23 | 41.42570 | 2.45705 | 5654 ft | 241 kts | 248° |
| 2026-04-15 16:24 | 41.41895 | 2.43704 | 5335 ft | 233 kts | 248° |
| 2026-04-15 16:24 | 41.41240 | 2.41765 | 5038 ft | 226 kts | 248° |
| 2026-04-15 16:24 | 41.40605 | 2.39887 | 4742 ft | 219 kts | 247° |
| 2026-04-15 16:24 | 41.39989 | 2.38064 | 4474 ft | 213 kts | 248° |
| 2026-04-15 16:25 | 41.39389 | 2.36292 | 4173 ft | 206 kts | 248° |
| 2026-04-15 16:25 | 41.38808 | 2.34578 | 3899 ft | 200 kts | 248° |
| 2026-04-15 16:25 | 41.38245 | 2.32917 | 3641 ft | 194 kts | 246° |
| 2026-04-15 16:25 | 41.37698 | 2.31304 | 3409 ft | 187 kts | 247° |
| 2026-04-15 16:26 | 41.37173 | 2.29758 | 3147 ft | 180 kts | 246° |
| 2026-04-15 16:26 | 41.36668 | 2.28269 | 2906 ft | 174 kts | 245° |
| 2026-04-15 16:26 | 41.36179 | 2.26828 | 2685 ft | 168 kts | 245° |
| 2026-04-15 16:26 | 41.35703 | 2.25429 | 2465 ft | 163 kts | 244° |
| 2026-04-15 16:27 | 41.35243 | 2.24076 | 2244 ft | 158 kts | 244° |
| 2026-04-15 16:27 | 41.34795 | 2.22758 | 2035 ft | 154 kts | 243° |
| 2026-04-15 16:27 | 41.34356 | 2.21468 | 1835 ft | 152 kts | 243° |
| 2026-04-15 16:27 | 41.33925 | 2.20201 | 1637 ft | 148 kts | 243° |
| 2026-04-15 16:28 | 41.33505 | 2.18970 | 1446 ft | 146 kts | 241° |
| 2026-04-15 16:28 | 41.33089 | 2.17749 | 1257 ft | 145 kts | 242° |
| 2026-04-15 16:28 | 41.32670 | 2.16524 | 1047 ft | 146 kts | 245° |
| 2026-04-15 16:28 | 41.32263 | 2.15334 | 848 ft | 142 kts | 244° |
| 2026-04-15 16:29 | 41.31864 | 2.14137 | 668 ft | 141 kts | 244° |
| 2026-04-15 16:29 | 41.31456 | 2.12959 | 465 ft | 141 kts | 244° |
| 2026-04-15 16:29 | 41.31049 | 2.11770 | 278 ft | 140 kts | 243° |
| 2026-04-15 16:29 | 41.30651 | 2.10592 | 103 ft | 140 kts | 243° |
| 2026-04-15 16:30 | 41.30273 | 2.09451 | 7 ft | 126 kts | 243° |
| 2026-04-15 16:30 | 41.29955 | 2.08571 | 7 ft | 79 kts | 245° |
| 2026-04-15 16:30 | 41.29761 | 2.08253 | 4 ft | 24 kts | 212° |
| 2026-04-15 16:30 | 41.29711 | 2.08207 | 4 ft | 2 kts | 214° |
| 2026-04-15 16:31 | 41.29689 | 2.08197 | 3 ft | 1 kts | 188° |
| 2026-04-15 16:31 | 41.29684 | 2.08198 | 3 ft | 1 kts | 180° |
| 2026-04-15 16:31 | 41.29671 | 2.08198 | 3 ft | 5 kts | 180° |
| 2026-04-15 16:31 | 41.29649 | 2.08191 | 3 ft | 5 kts | 200° |
| 2026-04-15 16:32 | 41.29623 | 2.08143 | 3 ft | 10 kts | 241° |
| 2026-04-15 16:32 | 41.29587 | 2.08044 | 4 ft | 13 kts | 246° |
| 2026-04-15 16:32 | 41.29548 | 2.07926 | 3 ft | 15 kts | 244° |
| 2026-04-15 16:32 | 41.29500 | 2.07796 | 3 ft | 16 kts | 245° |
| 2026-04-15 16:33 | 41.29447 | 2.07645 | 3 ft | 22 kts | 251° |
| 2026-04-15 16:33 | 41.29388 | 2.07458 | 4 ft | 22 kts | 248° |
| 2026-04-15 16:33 | 41.29327 | 2.07287 | 3 ft | 20 kts | 242° |
| 2026-04-15 16:33 | 41.29267 | 2.07114 | 3 ft | 22 kts | 242° |
| 2026-04-15 16:34 | 41.29161 | 2.07088 | 3 ft | 14 kts | 169° |
| 2026-04-15 16:34 | 41.29126 | 2.07073 | 4 ft | 0 kts | 216° |
| 2026-04-15 16:34 | 41.29103 | 2.07071 | 3 ft | 11 kts | 172° |
| 2026-04-15 16:34 | 41.29064 | 2.07095 | 3 ft | 3 kts | 154° |
| 2026-04-15 16:35 | 41.29060 | 2.07098 | 3 ft | 0 kts | 155° |